Time;durP1;ratioP1;P1;durP2;ratioP2;P2;SDS_P1;SDS_P2;PMS_P1;PMS_P2;Temp;Humidity;BMP_temperature;BMP_pressure;BME280_temperature;BME280_humidity;BME280_pressure;Samples;Min_cycle;Max_cycle;Signal;HPM_P1;HPM_P2
2020/12/06 00:00:09;;;;;;;5.32;4.25;;;6.50;68.00;;;;;;4978571;28;20026;-77
2020/12/06 00:02:34;;;;;;;6.47;5.53;;;6.50;68.20;;;;;;4984162;28;20473;-74
2020/12/06 00:05:00;;;;;;;4.68;3.45;;;6.60;68.20;;;;;;4980203;28;20046;-74
2020/12/06 00:07:26;;;;;;;5.00;3.80;;;6.50;68.10;;;;;;4978685;28;20081;-74
2020/12/06 00:09:51;;;;;;;4.68;3.92;;;6.60;68.10;;;;;;4979474;28;20038;-75
2020/12/06 00:12:17;;;;;;;4.43;3.92;;;6.60;68.00;;;;;;4985003;28;20030;-74
2020/12/06 00:14:42;;;;;;;6.45;5.15;;;6.60;67.90;;;;;;4978385;28;20118;-77
2020/12/06 00:17:08;;;;;;;5.85;4.63;;;6.50;67.80;;;;;;4983638;28;20106;-76
2020/12/06 00:19:33;;;;;;;5.93;4.78;;;6.50;67.80;;;;;;4977449;28;20065;-74
2020/12/06 00:21:59;;;;;;;4.80;3.72;;;6.50;67.80;;;;;;4985212;28;20034;-73
2020/12/06 00:24:24;;;;;;;4.90;4.05;;;6.50;67.80;;;;;;4986727;28;20049;-74
2020/12/06 00:26:50;;;;;;;4.22;3.70;;;6.50;67.80;;;;;;4968094;28;20122;-74
2020/12/06 00:29:15;;;;;;;5.40;4.15;;;6.50;67.90;;;;;;4983147;28;20037;-78
2020/12/06 00:31:41;;;;;;;5.65;4.07;;;6.60;68.00;;;;;;4985746;28;20035;-74
2020/12/06 00:34:06;;;;;;;5.60;4.43;;;6.50;67.80;;;;;;4981185;28;20465;-74
2020/12/06 00:36:32;;;;;;;4.25;3.45;;;6.50;67.80;;;;;;4985787;28;20113;-76
2020/12/06 00:38:57;;;;;;;4.55;3.95;;;6.50;67.80;;;;;;4982645;28;20550;-74
2020/12/06 00:41:23;;;;;;;5.18;3.40;;;6.50;67.80;;;;;;4985945;28;20519;-74
2020/12/06 00:43:49;;;;;;;3.78;3.38;;;6.50;67.90;;;;;;4981483;28;20026;-77
2020/12/06 00:46:22;;;;;;;3.95;3.35;;;6.50;68.00;;;;;;4982516;28;20027;-75
2020/12/06 00:48:48;;;;;;;5.68;3.65;;;6.50;68.10;;;;;;4978271;28;20456;-74
2020/12/06 00:51:14;;;;;;;4.95;3.50;;;6.50;68.00;;;;;;4982574;28;20058;-74
2020/12/06 00:53:43;;;;;;;3.95;3.22;;;6.50;68.00;;;;;;4982603;28;20026;-74
2020/12/06 00:56:16;;;;;;;5.22;3.75;;;6.40;68.10;;;;;;4977554;28;20027;-74
2020/12/06 00:58:43;;;;;;;4.10;3.70;;;6.50;68.30;;;;;;4980120;28;20129;-74
2020/12/06 01:01:08;;;;;;;4.22;3.63;;;6.50;68.00;;;;;;4983106;28;20026;-75
2020/12/06 01:03:34;;;;;;;4.78;4.10;;;6.40;68.00;;;;;;4977931;28;20026;-76
2020/12/06 01:05:59;;;;;;;4.38;3.70;;;6.50;68.10;;;;;;4987189;28;20490;-72
2020/12/06 01:08:25;;;;;;;5.13;3.88;;;6.50;68.10;;;;;;4983252;28;20037;-74
2020/12/06 01:10:50;;;;;;;4.47;4.00;;;6.50;68.10;;;;;;4986597;28;20042;-79
2020/12/06 01:13:15;;;;;;;5.32;4.28;;;6.50;68.10;;;;;;4981882;28;20035;-74
2020/12/06 01:15:41;;;;;;;4.68;3.53;;;6.50;68.00;;;;;;4983219;28;20034;-74
2020/12/06 01:18:06;;;;;;;5.13;3.75;;;6.50;68.50;;;;;;4983526;28;20816;-77
2020/12/06 01:20:32;;;;;;;4.53;4.07;;;6.50;68.00;;;;;;4980052;28;20026;-74
2020/12/06 01:22:57;;;;;;;4.70;3.92;;;6.50;68.00;;;;;;4984940;28;20031;-74
2020/12/06 01:25:23;;;;;;;4.35;3.58;;;6.50;68.00;;;;;;4984763;28;20034;-77
2020/12/06 01:27:49;;;;;;;3.75;3.30;;;6.50;68.10;;;;;;4979135;28;20035;-74
2020/12/06 01:30:14;;;;;;;3.85;3.22;;;6.50;68.10;;;;;;4984788;28;20546;-74
2020/12/06 01:32:40;;;;;;;4.35;3.30;;;6.50;68.00;;;;;;4983772;28;20111;-74
2020/12/06 01:35:05;;;;;;;3.90;3.45;;;6.60;68.10;;;;;;4978985;28;20038;-74
2020/12/06 01:37:31;;;;;;;4.20;3.80;;;6.50;67.90;;;;;;4983891;28;20573;-74
2020/12/06 01:39:56;;;;;;;5.32;4.13;;;6.50;67.90;;;;;;4983289;28;20031;-74
2020/12/06 01:42:23;;;;;;;4.57;3.67;;;6.50;67.90;;;;;;4982644;28;20423;-81
2020/12/06 01:44:55;;;;;;;4.05;3.42;;;6.40;67.80;;;;;;4985109;28;20394;-77
2020/12/06 01:47:21;;;;;;;3.90;3.50;;;6.50;67.80;;;;;;4984795;28;20031;-74
2020/12/06 01:49:46;;;;;;;4.22;3.45;;;6.40;67.70;;;;;;4983738;28;20057;-74
2020/12/06 01:52:12;;;;;;;4.30;3.50;;;6.40;67.70;;;;;;4983090;28;20527;-82
2020/12/06 01:54:37;;;;;;;4.07;3.58;;;6.40;67.70;;;;;;4986734;28;20039;-74
2020/12/06 01:57:04;;;;;;;4.80;3.65;;;6.40;67.70;;;;;;4982215;28;20045;-74
2020/12/06 01:59:30;;;;;;;4.22;3.67;;;6.30;67.60;;;;;;4976717;28;20046;-77
2020/12/06 02:01:58;;;;;;;4.45;3.72;;;6.30;67.60;;;;;;4983653;28;20034;-74
2020/12/06 02:04:26;;;;;;;4.13;3.17;;;6.30;67.70;;;;;;4979198;28;20505;-74
2020/12/06 02:06:52;;;;;;;4.53;3.25;;;6.30;67.70;;;;;;4963762;28;20026;-74
2020/12/06 02:09:18;;;;;;;5.13;3.72;;;6.20;67.70;;;;;;4986358;28;20034;-73
2020/12/06 02:11:43;;;;;;;4.35;3.33;;;6.20;67.80;;;;;;4983326;28;20221;-74
2020/12/06 02:14:12;;;;;;;4.57;3.45;;;6.20;67.90;;;;;;4983889;28;20042;-74
2020/12/06 02:16:38;;;;;;;3.97;3.13;;;6.20;67.90;;;;;;4986996;28;20041;-74
2020/12/06 02:19:07;;;;;;;5.03;3.80;;;6.20;67.90;;;;;;4983100;28;20386;-74
2020/12/06 02:21:34;;;;;;;4.43;3.55;;;6.20;68.00;;;;;;4985358;28;20583;-76
2020/12/06 02:24:01;;;;;;;4.05;3.33;;;6.20;68.00;;;;;;4986385;28;20102;-75
2020/12/06 02:26:27;;;;;;;3.42;2.97;;;6.20;68.00;;;;;;4985144;28;20034;-74
2020/12/06 02:28:52;;;;;;;4.80;3.45;;;6.20;68.10;;;;;;4983568;28;20039;-73
2020/12/06 02:31:18;;;;;;;4.88;4.25;;;6.10;68.00;;;;;;4986554;28;20449;-74
2020/12/06 02:33:43;;;;;;;4.40;3.70;;;6.20;68.10;;;;;;4981862;28;20027;-77
2020/12/06 02:36:09;;;;;;;4.97;3.92;;;6.10;68.00;;;;;;4987514;28;20593;-73
2020/12/06 02:38:34;;;;;;;4.65;3.67;;;6.20;68.20;;;;;;4983917;28;21031;-74
2020/12/06 02:41:00;;;;;;;5.70;4.32;;;6.20;68.20;;;;;;4985611;28;20117;-76
2020/12/06 02:43:25;;;;;;;4.45;3.42;;;6.20;68.30;;;;;;4980606;28;20072;-81
2020/12/06 02:45:51;;;;;;;5.78;3.95;;;6.20;68.30;;;;;;4986191;28;20113;-74
2020/12/06 02:48:16;;;;;;;5.93;4.35;;;6.20;68.30;;;;;;4983963;28;20054;-75
2020/12/06 02:50:42;;;;;;;3.83;3.08;;;6.30;68.30;;;;;;4985073;28;20061;-73
2020/12/06 02:53:08;;;;;;;3.85;3.28;;;6.30;68.20;;;;;;4985276;28;20122;-74
2020/12/06 02:55:33;;;;;;;3.70;3.33;;;6.20;68.10;;;;;;4985101;28;20046;-74
2020/12/06 02:57:59;;;;;;;4.30;3.25;;;6.20;68.10;;;;;;4981812;28;20081;-76
2020/12/06 03:00:24;;;;;;;4.38;3.75;;;6.30;68.20;;;;;;4984574;28;20052;-74
2020/12/06 03:02:50;;;;;;;4.97;4.07;;;6.30;68.20;;;;;;4982410;28;20508;-76
2020/12/06 03:05:15;;;;;;;4.75;3.72;;;6.30;68.10;;;;;;4982480;28;20404;-76
2020/12/06 03:07:41;;;;;;;4.95;3.65;;;6.30;68.10;;;;;;4981922;28;20051;-74
2020/12/06 03:10:06;;;;;;;4.78;4.15;;;6.30;68.20;;;;;;4986220;28;20042;-74
2020/12/06 03:12:35;;;;;;;4.93;4.40;;;6.40;68.20;;;;;;4985257;28;20121;-77
2020/12/06 03:15:01;;;;;;;4.18;3.50;;;6.30;68.20;;;;;;4983793;28;20039;-74
2020/12/06 03:17:27;;;;;;;5.60;4.75;;;6.30;68.20;;;;;;4985421;28;20042;-74
2020/12/06 03:19:52;;;;;;;5.68;4.30;;;6.30;68.30;;;;;;4985231;28;20034;-75
2020/12/06 03:22:18;;;;;;;5.18;4.10;;;6.30;68.30;;;;;;4969675;28;20437;-74
2020/12/06 03:24:43;;;;;;;5.32;4.72;;;6.30;68.30;;;;;;4984294;28;20452;-74
2020/12/06 03:27:09;;;;;;;5.25;3.67;;;6.30;68.30;;;;;;4980571;28;20060;-76
2020/12/06 03:29:34;;;;;;;4.95;4.05;;;6.30;68.40;;;;;;4984556;28;20057;-73
2020/12/06 03:32:00;;;;;;;5.35;4.50;;;6.50;68.60;;;;;;4985861;28;20363;-74
2020/12/06 03:34:25;;;;;;;4.90;4.00;;;6.40;68.60;;;;;;4978803;28;20030;-75
2020/12/06 03:36:51;;;;;;;5.00;3.75;;;6.40;68.60;;;;;;4978738;28;20038;-74
2020/12/06 03:39:16;;;;;;;4.68;4.00;;;6.40;68.50;;;;;;4982120;28;20034;-74
2020/12/06 03:41:45;;;;;;;4.55;3.83;;;6.40;68.60;;;;;;4985994;28;20034;-76
2020/12/06 03:44:11;;;;;;;3.97;3.25;;;6.60;68.70;;;;;;4978973;28;20034;-74
2020/12/06 03:46:36;;;;;;;4.10;3.47;;;6.50;68.60;;;;;;4985081;28;20096;-74
2020/12/06 03:49:02;;;;;;;3.85;3.33;;;6.50;68.50;;;;;;4979424;28;20104;-74
2020/12/06 03:51:27;;;;;;;4.35;3.20;;;6.50;68.50;;;;;;4985826;28;20045;-74
2020/12/06 03:53:53;;;;;;;5.30;3.85;;;6.60;68.50;;;;;;4984831;28;20030;-74
2020/12/06 03:56:18;;;;;;;5.22;3.97;;;6.60;68.40;;;;;;4982547;28;20404;-75
2020/12/06 03:58:45;;;;;;;6.20;4.32;;;6.60;68.30;;;;;;4976254;28;20038;-74
2020/12/06 04:01:11;;;;;;;4.95;4.25;;;6.60;68.30;;;;;;4982248;28;20132;-72
2020/12/06 04:03:36;;;;;;;3.90;3.28;;;6.60;68.30;;;;;;4979923;28;20060;-73
2020/12/06 04:06:01;;;;;;;4.30;3.55;;;6.60;68.30;;;;;;4984708;28;20056;-73
2020/12/06 04:08:27;;;;;;;4.30;3.35;;;6.70;68.40;;;;;;4984910;28;20061;-73
2020/12/06 04:10:52;;;;;;;3.70;3.20;;;6.60;68.90;;;;;;4985172;28;20037;-74
2020/12/06 04:13:18;;;;;;;5.22;4.40;;;6.60;68.30;;;;;;4980789;28;20037;-75
2020/12/06 04:15:43;;;;;;;4.40;3.78;;;6.70;68.40;;;;;;4988176;28;20149;-74
2020/12/06 04:18:09;;;;;;;4.85;4.07;;;6.70;68.40;;;;;;4985679;28;20501;-74
2020/12/06 04:20:34;;;;;;;3.75;3.13;;;6.60;68.30;;;;;;4983743;28;20109;-75
2020/12/06 04:23:00;;;;;;;5.00;4.22;;;6.70;68.40;;;;;;4984881;28;20114;-73
2020/12/06 04:25:25;;;;;;;4.72;4.22;;;6.70;68.40;;;;;;4985614;28;20030;-74
2020/12/06 04:27:51;;;;;;;5.30;3.90;;;6.70;68.50;;;;;;4978222;28;20030;-76
2020/12/06 04:30:16;;;;;;;3.75;3.28;;;6.70;68.50;;;;;;4984260;28;20031;-74
2020/12/06 04:32:42;;;;;;;5.53;3.47;;;6.70;68.50;;;;;;4983042;28;20042;-73
2020/12/06 04:35:07;;;;;;;5.38;4.22;;;6.80;68.60;;;;;;4981294;28;20044;-76
2020/12/06 04:37:33;;;;;;;4.20;3.47;;;6.80;68.60;;;;;;4984855;28;20516;-73
2020/12/06 04:39:59;;;;;;;4.28;3.83;;;6.80;68.60;;;;;;4983302;28;20395;-74
2020/12/06 04:42:25;;;;;;;4.72;3.75;;;6.80;68.60;;;;;;4976199;28;20033;-74
2020/12/06 04:44:51;;;;;;;4.47;3.72;;;6.80;68.60;;;;;;4978252;28;20126;-74
2020/12/06 04:47:41;;;;;;;4.82;3.60;;;6.80;68.60;;;;;;4983659;28;20121;-74
2020/12/06 04:50:11;;;;;;;4.13;3.72;;;6.80;68.80;;;;;;4979427;28;20039;-74
2020/12/06 04:52:43;;;;;;;4.73;3.90;;;6.90;68.70;;;;;;4982886;28;20034;-75
2020/12/06 04:55:12;;;;;;;3.78;3.20;;;6.90;68.70;;;;;;4985047;28;20453;-74
2020/12/06 04:57:39;;;;;;;4.13;3.28;;;6.90;68.60;;;;;;4980898;28;20043;-73
2020/12/06 05:00:09;;;;;;;4.43;3.45;;;6.90;68.60;;;;;;4979015;28;20115;-73
2020/12/06 05:02:41;;;;;;;4.60;3.45;;;6.90;68.90;;;;;;4979078;28;20041;-77
2020/12/06 05:05:06;;;;;;;4.80;3.20;;;6.90;68.60;;;;;;4979891;28;20053;-73
2020/12/06 05:07:33;;;;;;;4.20;3.45;;;7.00;68.60;;;;;;4982944;28;20042;-73
2020/12/06 05:09:59;;;;;;;4.63;3.40;;;7.00;68.60;;;;;;4983482;28;20489;-73
2020/12/06 05:12:25;;;;;;;5.45;3.72;;;7.00;68.60;;;;;;4983702;28;20045;-73
2020/12/06 05:14:50;;;;;;;5.07;3.92;;;7.00;69.10;;;;;;4978072;28;20089;-74
2020/12/06 05:17:16;;;;;;;3.67;3.30;;;7.00;68.50;;;;;;4986116;28;20030;-77
2020/12/06 05:19:42;;;;;;;5.13;3.92;;;7.00;68.50;;;;;;4981208;28;20061;-73
2020/12/06 05:22:07;;;;;;;5.35;4.30;;;7.00;68.50;;;;;;4984372;28;20034;-74
2020/12/06 05:24:34;;;;;;;5.32;3.80;;;7.00;68.40;;;;;;4986849;28;20038;-74
2020/12/06 05:27:00;;;;;;;4.28;3.72;;;7.00;68.40;;;;;;4985587;28;20026;-73
2020/12/06 05:29:26;;;;;;;5.30;4.18;;;7.00;68.30;;;;;;4980808;28;20447;-80
2020/12/06 05:31:55;;;;;;;5.88;4.47;;;7.10;68.40;;;;;;4983258;28;20485;-74
2020/12/06 05:34:21;;;;;;;6.15;5.05;;;7.00;68.40;;;;;;4979088;28;20030;-76
2020/12/06 05:36:46;;;;;;;4.78;4.18;;;7.10;68.50;;;;;;4985243;28;20577;-73
2020/12/06 05:39:12;;;;;;;4.28;3.55;;;7.10;68.50;;;;;;4989069;28;20540;-74
2020/12/06 05:41:37;;;;;;;4.10;3.70;;;7.10;68.50;;;;;;4980550;28;20042;-77
2020/12/06 05:44:06;;;;;;;4.88;4.13;;;7.00;68.40;;;;;;4985840;28;20029;-74
2020/12/06 05:46:34;;;;;;;5.07;4.35;;;7.00;68.40;;;;;;4989379;28;20030;-75
2020/12/06 05:49:02;;;;;;;4.53;3.90;;;7.10;68.40;;;;;;4982965;28;20084;-78
2020/12/06 05:51:28;;;;;;;4.53;3.95;;;7.10;68.40;;;;;;4988737;28;20052;-77
2020/12/06 05:53:56;;;;;;;4.57;3.53;;;7.10;68.40;;;;;;4987995;28;20444;-73
2020/12/06 05:56:22;;;;;;;5.15;4.20;;;7.10;68.50;;;;;;4986445;28;20113;-74
2020/12/06 05:58:49;;;;;;;5.50;4.65;;;7.10;68.50;;;;;;4985244;28;20121;-74
2020/12/06 06:01:16;;;;;;;6.10;4.70;;;7.10;68.60;;;;;;4983818;28;20125;-77
2020/12/06 06:03:48;;;;;;;4.63;4.10;;;7.10;68.60;;;;;;4984952;28;20445;-72
2020/12/06 06:06:34;;;;;;;4.93;4.38;;;7.10;68.60;;;;;;4986034;28;20038;-74
2020/12/06 06:09:01;;;;;;;6.80;4.57;;;7.10;68.60;;;;;;4980116;28;20591;-74
2020/12/06 06:11:28;;;;;;;5.22;4.07;;;7.20;68.60;;;;;;4987519;28;20034;-74
2020/12/06 06:13:57;;;;;;;4.75;4.18;;;7.20;68.60;;;;;;4985336;28;20087;-77
2020/12/06 06:16:26;;;;;;;5.20;4.53;;;7.20;68.50;;;;;;4990123;28;20524;-73
2020/12/06 06:18:53;;;;;;;9.25;4.00;;;7.20;68.50;;;;;;4978765;28;20042;-74
2020/12/06 06:21:22;;;;;;;5.50;4.15;;;7.20;68.50;;;;;;4988451;28;20035;-75
2020/12/06 06:23:49;;;;;;;4.38;3.80;;;7.20;68.50;;;;;;4987048;28;20026;-74
2020/12/06 06:26:17;;;;;;;5.40;3.90;;;7.20;68.50;;;;;;4979622;28;20027;-76
2020/12/06 06:28:44;;;;;;;8.30;6.50;;;7.20;68.50;;;;;;4984471;28;20104;-74
2020/12/06 06:31:11;;;;;;;20.73;15.80;;;7.20;68.50;;;;;;4986457;28;20081;-75
2020/12/06 06:33:38;;;;;;;27.52;18.70;;;7.20;68.50;;;;;;4982273;28;20035;-74
2020/12/06 06:36:06;;;;;;;16.45;11.88;;;7.20;68.50;;;;;;4986318;28;20033;-76
2020/12/06 06:38:38;;;;;;;9.98;7.97;;;7.20;68.70;;;;;;4986653;28;20033;-78
2020/12/06 06:41:05;;;;;;;8.73;7.35;;;7.20;68.70;;;;;;4989813;28;20033;-76
2020/12/06 06:43:33;;;;;;;7.20;6.03;;;7.20;68.70;;;;;;4977993;28;20413;-74
2020/12/06 06:46:07;;;;;;;6.75;5.60;;;7.20;68.70;;;;;;4988689;28;20037;-74
2020/12/06 06:48:34;;;;;;;6.78;5.80;;;7.10;68.60;;;;;;4979814;28;20053;-76
2020/12/06 06:50:59;;;;;;;5.63;4.90;;;7.20;68.70;;;;;;4989371;28;20041;-74
2020/12/06 06:53:25;;;;;;;6.72;6.03;;;7.20;68.70;;;;;;4987014;28;20057;-74
2020/12/06 06:55:52;;;;;;;6.35;5.50;;;7.20;68.70;;;;;;4981125;28;20141;-74
2020/12/06 06:58:23;;;;;;;6.53;5.20;;;7.20;68.60;;;;;;4983527;28;20042;-75
2020/12/06 07:00:49;;;;;;;7.68;5.82;;;7.20;68.70;;;;;;4983434;28;20058;-77
2020/12/06 07:03:18;;;;;;;6.22;5.03;;;7.20;68.50;;;;;;4979945;28;20101;-76
2020/12/06 07:05:43;;;;;;;5.60;4.93;;;7.20;68.50;;;;;;4985947;28;20034;-74
2020/12/06 07:08:11;;;;;;;8.23;6.45;;;7.10;68.40;;;;;;4987087;28;20034;-77
2020/12/06 07:10:39;;;;;;;7.10;6.22;;;7.20;68.50;;;;;;4984072;28;20069;-75
2020/12/06 07:13:06;;;;;;;6.50;5.50;;;7.20;68.50;;;;;;4981642;28;20141;-73
2020/12/06 07:15:32;;;;;;;6.82;5.32;;;7.10;68.50;;;;;;4984813;28;20410;-76
2020/12/06 07:17:58;;;;;;;5.80;4.55;;;7.10;68.60;;;;;;4984833;28;20038;-74
2020/12/06 07:20:25;;;;;;;7.00;5.45;;;7.10;68.60;;;;;;4981689;28;20559;-74
2020/12/06 07:22:52;;;;;;;5.97;5.13;;;7.10;68.60;;;;;;4985835;28;20062;-74
2020/12/06 07:25:19;;;;;;;6.00;4.93;;;7.10;68.60;;;;;;4981469;28;20028;-74
2020/12/06 07:27:45;;;;;;;6.32;5.25;;;7.10;68.70;;;;;;4983792;28;20035;-76
2020/12/06 07:30:16;;;;;;;6.85;5.55;;;7.40;68.90;;;;;;4985078;28;20035;-74
2020/12/06 07:32:42;;;;;;;6.13;5.28;;;7.20;68.90;;;;;;4984849;28;20038;-73
2020/12/06 07:35:12;;;;;;;6.75;5.53;;;7.20;68.90;;;;;;4981086;28;20056;-73
2020/12/06 07:37:38;;;;;;;6.22;4.80;;;7.20;69.00;;;;;;4988492;28;20141;-74
2020/12/06 07:40:09;;;;;;;5.50;4.30;;;7.20;69.40;;;;;;4987293;28;20541;-74
2020/12/06 07:42:35;;;;;;;5.38;4.03;;;7.20;68.90;;;;;;4984613;28;20034;-74
2020/12/06 07:45:01;;;;;;;6.15;5.07;;;7.20;68.90;;;;;;4986236;28;20034;-74
2020/12/06 07:47:27;;;;;;;7.97;6.13;;;7.20;68.90;;;;;;4984290;28;20049;-74
2020/12/06 07:49:58;;;;;;;6.00;5.03;;;7.30;69.00;;;;;;4978518;28;20034;-74
2020/12/06 07:52:23;;;;;;;;;;;7.30;69.10;;;;;;4966193;28;20125;-74
2020/12/06 07:54:56;;;;;;;4.57;4.13;;;7.30;69.60;;;;;;4983248;28;19996;-74
2020/12/06 07:57:42;;;;;;;6.03;4.60;;;7.30;68.80;;;;;;4983822;28;20039;-74
2020/12/06 08:00:20;;;;;;;6.20;4.40;;;7.30;68.80;;;;;;4976982;28;20086;-74
2020/12/06 08:02:53;;;;;;;5.05;4.35;;;7.30;68.90;;;;;;4982138;28;20093;-74
2020/12/06 08:05:21;;;;;;;4.95;4.07;;;7.30;68.80;;;;;;4985149;28;20040;-75
2020/12/06 08:07:51;;;;;;;5.38;4.43;;;7.30;68.80;;;;;;4989313;28;20039;-74
2020/12/06 08:10:18;;;;;;;5.70;4.90;;;7.30;68.80;;;;;;4983583;28;20022;-75
2020/12/06 08:12:46;;;;;;;5.60;4.65;;;7.30;68.80;;;;;;4984627;28;20113;-75
2020/12/06 08:15:12;;;;;;;6.10;5.15;;;7.40;68.90;;;;;;4983943;28;20038;-75
2020/12/06 08:17:48;;;;;;;6.03;4.93;;;7.30;68.80;;;;;;4982660;28;20042;-74
2020/12/06 08:20:22;;;;;;;6.03;4.88;;;7.30;68.90;;;;;;4980311;28;20065;-74
2020/12/06 08:22:56;;;;;;;5.28;4.38;;;7.40;68.90;;;;;;4980043;28;20088;-74
2020/12/06 08:25:25;;;;;;;6.85;5.35;;;7.30;68.90;;;;;;4981196;28;20392;-74
2020/12/06 08:27:51;;;;;;;5.97;4.63;;;7.30;68.80;;;;;;4974894;28;20066;-74
2020/12/06 08:30:19;;;;;;;6.07;5.05;;;7.40;68.90;;;;;;4986560;28;20540;-75
2020/12/06 08:32:55;;;;;;;5.63;4.70;;;7.30;68.80;;;;;;4983663;28;20114;-74
2020/12/06 08:35:36;;;;;;;7.03;5.03;;;7.40;69.00;;;;;;4983581;28;20508;-78
2020/12/06 08:38:20;;;;;;;5.00;4.47;;;7.40;68.90;;;;;;4978904;28;20161;-74
2020/12/06 08:40:59;;;;;;;6.43;4.88;;;7.30;69.10;;;;;;4979132;28;20038;-77
2020/12/06 08:43:37;;;;;;;6.28;5.40;;;7.40;69.20;;;;;;4980231;28;20034;-74
2020/12/06 08:46:07;;;;;;;6.55;4.80;;;7.40;69.00;;;;;;4979536;28;20774;-74
2020/12/06 08:48:33;;;;;;;6.15;5.10;;;7.40;69.10;;;;;;4981481;28;20034;-75
2020/12/06 08:50:58;;;;;;;7.50;6.22;;;7.40;69.10;;;;;;4984937;28;20096;-75
2020/12/06 08:53:24;;;;;;;7.40;5.72;;;7.40;69.20;;;;;;4982086;28;20489;-74
2020/12/06 08:55:49;;;;;;;6.78;5.22;;;7.50;69.30;;;;;;4981988;28;20030;-73
2020/12/06 08:58:28;;;;;;;8.00;5.93;;;7.50;69.30;;;;;;4977430;28;20524;-75
2020/12/06 09:01:00;;;;;;;7.63;6.10;;;7.50;69.60;;;;;;4977683;28;20026;-75
2020/12/06 09:03:25;;;;;;;8.70;6.63;;;7.50;69.40;;;;;;4978775;28;20042;-74
2020/12/06 09:05:51;;;;;;;9.02;6.68;;;7.50;69.40;;;;;;4979866;28;20049;-73
2020/12/06 09:08:16;;;;;;;9.00;7.97;;;7.60;69.50;;;;;;4983501;28;20038;-74
2020/12/06 09:10:42;;;;;;;10.88;8.45;;;7.60;69.50;;;;;;4980685;28;20034;-74
2020/12/06 09:13:07;;;;;;;9.07;6.65;;;7.60;69.60;;;;;;4981832;28;20058;-74
2020/12/06 09:15:32;;;;;;;8.25;6.57;;;7.60;69.60;;;;;;4981913;28;20030;-73
2020/12/06 09:17:58;;;;;;;6.82;5.90;;;7.70;69.60;;;;;;4982779;28;20034;-75
2020/12/06 09:20:23;;;;;;;9.80;7.10;;;7.70;69.60;;;;;;4977289;28;20026;-74
2020/12/06 09:22:49;;;;;;;8.20;6.10;;;7.80;69.60;;;;;;4982100;28;20061;-73
2020/12/06 09:25:14;;;;;;;9.65;6.95;;;7.80;70.10;;;;;;4984319;28;20125;-75
2020/12/06 09:27:40;;;;;;;8.15;6.75;;;7.90;69.60;;;;;;4979953;28;20065;-74
2020/12/06 09:30:05;;;;;;;7.35;6.07;;;7.80;69.50;;;;;;4979381;28;20548;-74
2020/12/06 09:32:31;;;;;;;8.25;6.63;;;7.90;69.50;;;;;;4979433;28;20143;-75
2020/12/06 09:34:56;;;;;;;9.90;7.55;;;7.90;69.60;;;;;;4979648;28;20510;-74
2020/12/06 09:37:22;;;;;;;8.00;6.47;;;7.90;69.50;;;;;;4982790;28;20038;-73
2020/12/06 09:39:47;;;;;;;8.38;6.60;;;7.90;69.50;;;;;;4985960;28;20501;-75
2020/12/06 09:42:13;;;;;;;8.95;6.68;;;8.00;69.60;;;;;;4979405;28;20159;-73
2020/12/06 09:44:38;;;;;;;8.27;6.90;;;7.90;69.60;;;;;;4973363;28;20066;-74
2020/12/06 09:47:04;;;;;;;9.38;6.82;;;8.00;69.60;;;;;;4976786;28;20119;-74
2020/12/06 09:49:29;;;;;;;7.65;6.13;;;8.00;69.60;;;;;;4980229;28;20073;-73
2020/12/06 09:51:55;;;;;;;8.25;6.43;;;8.00;69.50;;;;;;4981601;28;20416;-73
2020/12/06 09:54:20;;;;;;;8.38;6.35;;;8.00;69.50;;;;;;4986062;28;20085;-75
2020/12/06 09:56:46;;;;;;;8.68;6.43;;;8.10;69.50;;;;;;4982568;28;20501;-73
2020/12/06 09:59:11;;;;;;;7.97;6.63;;;8.10;69.50;;;;;;4981567;28;20042;-72
2020/12/06 10:01:37;;;;;;;8.05;5.95;;;8.10;69.50;;;;;;4978925;28;20027;-74
2020/12/06 10:04:02;;;;;;;7.80;6.25;;;8.10;69.50;;;;;;4978618;28;20085;-74
2020/12/06 10:06:28;;;;;;;9.10;6.93;;;8.10;69.50;;;;;;4983913;28;20038;-74
2020/12/06 10:08:54;;;;;;;7.15;5.72;;;8.10;69.50;;;;;;4982016;28;20039;-74
2020/12/06 10:11:20;;;;;;;7.43;5.93;;;8.10;69.60;;;;;;4982321;28;20026;-75
2020/12/06 10:13:45;;;;;;;8.50;6.47;;;8.20;69.70;;;;;;4977568;28;20031;-76
2020/12/06 10:16:11;;;;;;;7.43;6.00;;;8.20;69.70;;;;;;4984824;28;20038;-74
2020/12/06 10:18:36;;;;;;;6.45;5.50;;;8.20;69.70;;;;;;4977539;28;20051;-74
2020/12/06 10:21:02;;;;;;;7.40;6.10;;;8.20;69.70;;;;;;4983873;28;20034;-74
2020/12/06 10:23:28;;;;;;;8.23;6.22;;;8.40;69.80;;;;;;4985685;28;20039;-73
2020/12/06 10:25:53;;;;;;;8.68;6.28;;;8.30;69.70;;;;;;4986493;28;20027;-74
2020/12/06 10:28:18;;;;;;;8.27;5.97;;;8.30;69.60;;;;;;4983359;28;20117;-74
2020/12/06 10:30:44;;;;;;;7.88;6.00;;;8.30;69.60;;;;;;4985930;28;20038;-72
2020/12/06 10:33:09;;;;;;;7.72;6.13;;;8.30;69.50;;;;;;4980715;28;20493;-73
2020/12/06 10:35:35;;;;;;;7.75;6.47;;;8.30;69.40;;;;;;4984035;28;20121;-74
2020/12/06 10:38:00;;;;;;;7.30;5.95;;;8.30;69.40;;;;;;4985861;28;20042;-74
2020/12/06 10:40:26;;;;;;;7.45;6.07;;;8.30;69.40;;;;;;4984430;28;20026;-73
2020/12/06 10:42:51;;;;;;;8.52;5.65;;;8.30;69.40;;;;;;4986330;28;20045;-74
2020/12/06 10:45:17;;;;;;;8.75;6.72;;;8.30;69.40;;;;;;4985043;28;20027;-73
2020/12/06 10:47:44;;;;;;;8.75;6.65;;;8.30;69.50;;;;;;4986739;28;20040;-73
2020/12/06 10:50:09;;;;;;;8.30;6.10;;;8.30;69.40;;;;;;4982686;28;20045;-74
2020/12/06 10:52:35;;;;;;;7.43;6.20;;;8.40;69.50;;;;;;4984118;28;20034;-74
2020/12/06 10:55:00;;;;;;;8.10;6.18;;;8.30;69.50;;;;;;4986244;28;20032;-73
2020/12/06 10:57:26;;;;;;;6.50;5.50;;;8.40;69.60;;;;;;4982312;28;20056;-75
2020/12/06 10:59:53;;;;;;;7.65;6.05;;;8.30;69.60;;;;;;4984820;28;20118;-74
2020/12/06 11:02:20;;;;;;;7.80;5.72;;;8.30;69.60;;;;;;4985026;28;20026;-73
2020/12/06 11:04:45;;;;;;;10.60;5.38;;;8.30;69.70;;;;;;4983060;28;20061;-74
2020/12/06 11:07:11;;;;;;;8.55;7.05;;;8.40;69.80;;;;;;4987309;28;20400;-73
2020/12/06 11:09:36;;;;;;;7.88;6.53;;;8.50;69.80;;;;;;4985578;28;20452;-74
2020/12/06 11:12:02;;;;;;;8.30;6.75;;;8.40;69.80;;;;;;4984975;28;20045;-74
2020/12/06 11:14:27;;;;;;;12.82;8.88;;;8.40;69.80;;;;;;4983180;28;20496;-74
2020/12/06 11:16:53;;;;;;;15.82;11.35;;;8.50;69.90;;;;;;4986554;28;20019;-75
2020/12/06 11:19:18;;;;;;;16.48;10.25;;;8.40;69.80;;;;;;4978717;28;20026;-74
2020/12/06 11:21:44;;;;;;;12.88;8.52;;;8.40;69.80;;;;;;4986488;28;20420;-72
2020/12/06 11:24:10;;;;;;;13.55;8.98;;;8.40;69.80;;;;;;4984199;28;20029;-75
2020/12/06 11:26:35;;;;;;;12.02;7.28;;;8.60;70.00;;;;;;4984785;28;20034;-74
2020/12/06 11:29:01;;;;;;;13.80;8.65;;;8.50;69.90;;;;;;4977792;28;20030;-74
2020/12/06 11:31:26;;;;;;;9.20;7.63;;;8.50;69.90;;;;;;4983391;28;20029;-74
2020/12/06 11:33:52;;;;;;;10.13;7.35;;;8.50;69.90;;;;;;4979439;28;20599;-74
2020/12/06 11:36:17;;;;;;;12.63;9.23;;;8.60;69.90;;;;;;4986471;28;20034;-74
2020/12/06 11:38:45;;;;;;;9.80;7.88;;;8.60;69.90;;;;;;4983577;28;20185;-75
2020/12/06 11:41:11;;;;;;;9.52;7.30;;;8.60;69.90;;;;;;4982414;28;20162;-75
2020/12/06 11:43:36;;;;;;;10.10;6.80;;;8.60;69.90;;;;;;4986451;28;20520;-74
2020/12/06 11:46:02;;;;;;;11.43;8.77;;;8.60;69.90;;;;;;4984434;28;20437;-74
2020/12/06 11:48:27;;;;;;;10.60;7.93;;;8.60;69.90;;;;;;4982078;28;20038;-75
2020/12/06 11:50:53;;;;;;;8.63;7.22;;;8.60;69.80;;;;;;4986036;28;20041;-74
2020/12/06 11:53:19;;;;;;;8.65;6.93;;;8.60;69.80;;;;;;4987782;28;20117;-74
2020/12/06 11:55:44;;;;;;;8.45;6.63;;;8.70;69.80;;;;;;4985228;28;20033;-74
2020/12/06 11:58:09;;;;;;;9.85;6.25;;;8.60;69.70;;;;;;4982650;28;20493;-73
2020/12/06 12:00:35;;;;;;;10.07;7.38;;;8.60;69.70;;;;;;4982567;28;20039;-74
2020/12/06 12:03:00;;;;;;;11.35;7.82;;;8.60;69.70;;;;;;4976847;28;20053;-75
2020/12/06 12:05:26;;;;;;;7.82;6.07;;;8.60;69.70;;;;;;4977322;28;20027;-74
2020/12/06 12:07:52;;;;;;;8.02;6.80;;;8.70;69.80;;;;;;4982488;28;20094;-74
2020/12/06 12:10:17;;;;;;;7.72;5.72;;;8.60;69.70;;;;;;4971283;28;20498;-75
2020/12/06 12:12:43;;;;;;;8.50;6.38;;;8.70;69.80;;;;;;4979506;28;20035;-74
2020/12/06 12:15:09;;;;;;;8.25;6.18;;;8.70;69.80;;;;;;4978703;28;20433;-77
2020/12/06 12:17:35;;;;;;;8.75;6.30;;;8.70;69.80;;;;;;4979283;28;20042;-74
2020/12/06 12:20:01;;;;;;;9.15;6.07;;;8.70;69.80;;;;;;4977991;28;20034;-76
2020/12/06 12:22:27;;;;;;;13.38;9.40;;;8.70;69.90;;;;;;4970804;28;20026;-72
2020/12/06 12:24:52;;;;;;;11.85;9.27;;;8.70;69.90;;;;;;4983736;28;20449;-74
2020/12/06 12:27:18;;;;;;;12.07;8.38;;;8.70;69.90;;;;;;4976553;28;20069;-74
2020/12/06 12:29:44;;;;;;;10.13;7.97;;;8.70;69.90;;;;;;4982970;28;20505;-75
2020/12/06 12:32:09;;;;;;;10.35;6.60;;;8.70;70.00;;;;;;4981796;28;20037;-74
2020/12/06 12:34:35;;;;;;;8.38;6.47;;;8.70;70.00;;;;;;4979956;28;20656;-75
2020/12/06 12:37:01;;;;;;;10.15;6.97;;;8.80;70.10;;;;;;4985068;28;20022;-75
2020/12/06 12:39:27;;;;;;;8.73;6.78;;;8.80;70.20;;;;;;4966748;28;20031;-78
2020/12/06 12:41:55;;;;;;;7.93;6.43;;;8.80;70.20;;;;;;4985035;28;20030;-75
2020/12/06 12:44:23;;;;;;;9.80;6.50;;;8.80;70.20;;;;;;4981481;28;20132;-75
2020/12/06 12:46:53;;;;;;;9.38;6.78;;;8.90;70.30;;;;;;4985332;28;20022;-75
2020/12/06 12:49:19;;;;;;;9.87;6.87;;;9.00;70.30;;;;;;4977289;28;20038;-75
2020/12/06 12:51:44;;;;;;;10.07;6.90;;;9.00;70.20;;;;;;4994203;28;20037;-79